sensor_id;sensor_type;location;lat;lon;timestamp;temperature;humidity
20174;DHT22;10246;50.620;7.232;2022-09-09T00:01:11;18.60;1.00
20174;DHT22;10246;50.620;7.232;2022-09-09T00:03:47;18.60;1.00
20174;DHT22;10246;50.620;7.232;2022-09-09T00:06:21;18.70;1.00
20174;DHT22;10246;50.620;7.232;2022-09-09T00:08:58;18.60;1.00
20174;DHT22;10246;50.620;7.232;2022-09-09T00:11:33;18.60;1.00
20174;DHT22;10246;50.620;7.232;2022-09-09T00:14:10;18.50;1.00
20174;DHT22;10246;50.620;7.232;2022-09-09T00:16:41;18.40;1.00
20174;DHT22;10246;50.620;7.232;2022-09-09T00:19:18;18.30;1.00
20174;DHT22;10246;50.620;7.232;2022-09-09T00:21:50;18.30;1.00
20174;DHT22;10246;50.620;7.232;2022-09-09T00:24:24;18.30;1.00
20174;DHT22;10246;50.620;7.232;2022-09-09T00:26:57;18.30;1.00
20174;DHT22;10246;50.620;7.232;2022-09-09T00:29:33;18.30;1.00
20174;DHT22;10246;50.620;7.232;2022-09-09T00:32:11;18.30;1.00
20174;DHT22;10246;50.620;7.232;2022-09-09T00:34:39;18.30;1.00
20174;DHT22;10246;50.620;7.232;2022-09-09T00:37:10;18.30;1.00
20174;DHT22;10246;50.620;7.232;2022-09-09T00:39:38;18.30;1.00
20174;DHT22;10246;50.620;7.232;2022-09-09T00:42:14;18.30;1.00
20174;DHT22;10246;50.620;7.232;2022-09-09T00:44:52;18.30;1.00
20174;DHT22;10246;50.620;7.232;2022-09-09T00:47:39;18.30;1.00
20174;DHT22;10246;50.620;7.232;2022-09-09T00:50:21;18.30;1.00
20174;DHT22;10246;50.620;7.232;2022-09-09T00:52:59;18.30;1.00
20174;DHT22;10246;50.620;7.232;2022-09-09T00:55:36;18.20;1.00
20174;DHT22;10246;50.620;7.232;2022-09-09T00:58:07;18.10;1.00
20174;DHT22;10246;50.620;7.232;2022-09-09T01:00:42;18.20;1.00
20174;DHT22;10246;50.620;7.232;2022-09-09T01:03:30;18.10;1.00
20174;DHT22;10246;50.620;7.232;2022-09-09T01:06:02;18.10;1.00
20174;DHT22;10246;50.620;7.232;2022-09-09T01:08:42;18.10;1.00
20174;DHT22;10246;50.620;7.232;2022-09-09T01:11:21;18.10;1.00
20174;DHT22;10246;50.620;7.232;2022-09-09T01:13:52;18.20;1.00
20174;DHT22;10246;50.620;7.232;2022-09-09T01:16:21;18.20;1.00
20174;DHT22;10246;50.620;7.232;2022-09-09T01:18:52;18.20;1.00
20174;DHT22;10246;50.620;7.232;2022-09-09T01:21:25;18.20;1.00
20174;DHT22;10246;50.620;7.232;2022-09-09T01:24:08;18.20;1.00
20174;DHT22;10246;50.620;7.232;2022-09-09T01:26:41;18.20;1.00
20174;DHT22;10246;50.620;7.232;2022-09-09T01:29:11;18.20;1.00
20174;DHT22;10246;50.620;7.232;2022-09-09T01:31:41;18.10;1.00
20174;DHT22;10246;50.620;7.232;2022-09-09T01:34:10;18.10;1.00
20174;DHT22;10246;50.620;7.232;2022-09-09T01:36:41;18.10;1.00
20174;DHT22;10246;50.620;7.232;2022-09-09T01:39:10;18.10;1.00
20174;DHT22;10246;50.620;7.232;2022-09-09T01:41:37;18.10;1.00
20174;DHT22;10246;50.620;7.232;2022-09-09T01:44:07;18.20;1.00
20174;DHT22;10246;50.620;7.232;2022-09-09T01:46:34;18.20;1.00
20174;DHT22;10246;50.620;7.232;2022-09-09T01:49:02;18.10;1.20
20174;DHT22;10246;50.620;7.232;2022-09-09T01:51:30;18.10;1.20
20174;DHT22;10246;50.620;7.232;2022-09-09T01:53:57;18.20;1.00
20174;DHT22;10246;50.620;7.232;2022-09-09T01:56:33;18.20;1.00
20174;DHT22;10246;50.620;7.232;2022-09-09T01:59:15;18.20;1.00
20174;DHT22;10246;50.620;7.232;2022-09-09T02:01:56;18.20;1.00
20174;DHT22;10246;50.620;7.232;2022-09-09T02:04:35;18.20;1.00
20174;DHT22;10246;50.620;7.232;2022-09-09T02:07:06;18.20;1.00
20174;DHT22;10246;50.620;7.232;2022-09-09T02:09:35;18.10;1.00
20174;DHT22;10246;50.620;7.232;2022-09-09T02:12:08;18.10;1.00
20174;DHT22;10246;50.620;7.232;2022-09-09T02:14:41;18.10;1.40
20174;DHT22;10246;50.620;7.232;2022-09-09T02:17:10;18.10;1.60
20174;DHT22;10246;50.620;7.232;2022-09-09T02:19:40;18.10;1.50
20174;DHT22;10246;50.620;7.232;2022-09-09T02:22:11;18.10;1.80
20174;DHT22;10246;50.620;7.232;2022-09-09T02:24:39;18.00;1.40
20174;DHT22;10246;50.620;7.232;2022-09-09T02:27:08;18.00;1.60
20174;DHT22;10246;50.620;7.232;2022-09-09T02:29:40;18.10;1.20
20174;DHT22;10246;50.620;7.232;2022-09-09T02:32:11;18.00;1.30
20174;DHT22;10246;50.620;7.232;2022-09-09T02:34:43;18.00;1.00
20174;DHT22;10246;50.620;7.232;2022-09-09T02:37:11;18.00;1.00
20174;DHT22;10246;50.620;7.232;2022-09-09T02:39:38;18.00;1.00
20174;DHT22;10246;50.620;7.232;2022-09-09T02:42:05;18.00;1.00
20174;DHT22;10246;50.620;7.232;2022-09-09T02:44:32;18.00;1.00
20174;DHT22;10246;50.620;7.232;2022-09-09T02:47:14;18.00;1.00
20174;DHT22;10246;50.620;7.232;2022-09-09T02:49:52;18.00;1.20
20174;DHT22;10246;50.620;7.232;2022-09-09T02:52:27;17.90;2.40
20174;DHT22;10246;50.620;7.232;2022-09-09T02:55:02;17.80;3.00
20174;DHT22;10246;50.620;7.232;2022-09-09T02:57:31;17.90;3.50
20174;DHT22;10246;50.620;7.232;2022-09-09T03:00:00;17.90;3.70
20174;DHT22;10246;50.620;7.232;2022-09-09T03:02:28;17.80;3.60
20174;DHT22;10246;50.620;7.232;2022-09-09T03:04:55;17.80;3.70
20174;DHT22;10246;50.620;7.232;2022-09-09T03:07:23;17.80;3.60
20174;DHT22;10246;50.620;7.232;2022-09-09T03:09:49;17.80;3.00
20174;DHT22;10246;50.620;7.232;2022-09-09T03:12:16;17.90;1.70
20174;DHT22;10246;50.620;7.232;2022-09-09T03:14:43;17.90;2.00
20174;DHT22;10246;50.620;7.232;2022-09-09T03:17:11;17.90;1.40
20174;DHT22;10246;50.620;7.232;2022-09-09T03:19:39;17.90;1.30
20174;DHT22;10246;50.620;7.232;2022-09-09T03:22:06;17.90;1.40
20174;DHT22;10246;50.620;7.232;2022-09-09T03:24:33;17.90;2.20
20174;DHT22;10246;50.620;7.232;2022-09-09T03:26:59;17.90;1.00
20174;DHT22;10246;50.620;7.232;2022-09-09T03:29:26;17.90;1.00
20174;DHT22;10246;50.620;7.232;2022-09-09T03:31:53;17.90;1.00
20174;DHT22;10246;50.620;7.232;2022-09-09T03:34:20;17.90;1.00
20174;DHT22;10246;50.620;7.232;2022-09-09T03:36:48;18.00;1.00
20174;DHT22;10246;50.620;7.232;2022-09-09T03:39:15;17.90;1.00
20174;DHT22;10246;50.620;7.232;2022-09-09T03:41:42;17.90;1.00
20174;DHT22;10246;50.620;7.232;2022-09-09T03:44:13;17.90;1.00
20174;DHT22;10246;50.620;7.232;2022-09-09T03:46:39;17.90;1.00
20174;DHT22;10246;50.620;7.232;2022-09-09T03:49:06;17.90;1.00
20174;DHT22;10246;50.620;7.232;2022-09-09T03:51:33;17.90;1.00
20174;DHT22;10246;50.620;7.232;2022-09-09T03:54:03;17.90;1.00
20174;DHT22;10246;50.620;7.232;2022-09-09T03:56:33;17.90;1.00
20174;DHT22;10246;50.620;7.232;2022-09-09T03:59:00;17.90;1.00
20174;DHT22;10246;50.620;7.232;2022-09-09T04:01:27;18.00;1.00
20174;DHT22;10246;50.620;7.232;2022-09-09T04:03:54;18.00;1.00
20174;DHT22;10246;50.620;7.232;2022-09-09T04:06:24;18.00;1.00
20174;DHT22;10246;50.620;7.232;2022-09-09T04:08:51;18.00;1.00
20174;DHT22;10246;50.620;7.232;2022-09-09T04:11:19;18.00;1.00
20174;DHT22;10246;50.620;7.232;2022-09-09T04:13:46;18.00;1.00
20174;DHT22;10246;50.620;7.232;2022-09-09T04:16:14;18.00;1.00
20174;DHT22;10246;50.620;7.232;2022-09-09T04:18:40;18.00;1.00
20174;DHT22;10246;50.620;7.232;2022-09-09T04:21:09;18.00;1.00
20174;DHT22;10246;50.620;7.232;2022-09-09T04:23:36;18.00;1.00
20174;DHT22;10246;50.620;7.232;2022-09-09T04:26:03;17.90;1.00
20174;DHT22;10246;50.620;7.232;2022-09-09T04:28:32;17.90;1.00
20174;DHT22;10246;50.620;7.232;2022-09-09T04:31:05;17.90;1.00
20174;DHT22;10246;50.620;7.232;2022-09-09T04:33:31;17.90;1.00
20174;DHT22;10246;50.620;7.232;2022-09-09T04:35:58;17.80;1.00
20174;DHT22;10246;50.620;7.232;2022-09-09T04:38:25;17.80;1.00
20174;DHT22;10246;50.620;7.232;2022-09-09T04:40:52;17.80;1.00
20174;DHT22;10246;50.620;7.232;2022-09-09T04:43:20;17.80;1.00
20174;DHT22;10246;50.620;7.232;2022-09-09T04:45:50;17.80;1.00
20174;DHT22;10246;50.620;7.232;2022-09-09T04:48:17;17.80;1.00
20174;DHT22;10246;50.620;7.232;2022-09-09T04:50:43;17.90;1.00
20174;DHT22;10246;50.620;7.232;2022-09-09T04:53:11;17.90;1.00
20174;DHT22;10246;50.620;7.232;2022-09-09T04:55:37;17.90;1.00
20174;DHT22;10246;50.620;7.232;2022-09-09T04:58:05;17.90;1.00
20174;DHT22;10246;50.620;7.232;2022-09-09T05:00:32;17.90;1.00
20174;DHT22;10246;50.620;7.232;2022-09-09T05:03:02;17.90;1.00
20174;DHT22;10246;50.620;7.232;2022-09-09T05:05:30;17.90;1.00
20174;DHT22;10246;50.620;7.232;2022-09-09T05:08:01;17.90;1.00
20174;DHT22;10246;50.620;7.232;2022-09-09T05:10:29;17.90;1.00
20174;DHT22;10246;50.620;7.232;2022-09-09T05:12:56;17.90;1.00
20174;DHT22;10246;50.620;7.232;2022-09-09T05:15:23;17.90;1.00
20174;DHT22;10246;50.620;7.232;2022-09-09T05:17:49;17.90;1.00
20174;DHT22;10246;50.620;7.232;2022-09-09T05:20:19;17.90;1.00
20174;DHT22;10246;50.620;7.232;2022-09-09T05:22:46;17.90;1.00
20174;DHT22;10246;50.620;7.232;2022-09-09T05:25:13;17.90;1.00
20174;DHT22;10246;50.620;7.232;2022-09-09T05:27:40;17.90;1.00
20174;DHT22;10246;50.620;7.232;2022-09-09T05:30:08;17.90;1.00
20174;DHT22;10246;50.620;7.232;2022-09-09T05:32:35;18.00;1.00
20174;DHT22;10246;50.620;7.232;2022-09-09T05:35:02;18.00;1.00
20174;DHT22;10246;50.620;7.232;2022-09-09T05:37:32;18.00;1.00
20174;DHT22;10246;50.620;7.232;2022-09-09T05:39:58;18.00;1.00
20174;DHT22;10246;50.620;7.232;2022-09-09T05:42:29;18.00;1.00
20174;DHT22;10246;50.620;7.232;2022-09-09T05:44:57;18.00;1.00
20174;DHT22;10246;50.620;7.232;2022-09-09T05:47:24;18.00;1.00
20174;DHT22;10246;50.620;7.232;2022-09-09T05:49:53;18.00;1.00
20174;DHT22;10246;50.620;7.232;2022-09-09T05:52:21;17.90;1.00
20174;DHT22;10246;50.620;7.232;2022-09-09T05:54:49;17.90;1.00
20174;DHT22;10246;50.620;7.232;2022-09-09T05:57:16;17.90;1.00
20174;DHT22;10246;50.620;7.232;2022-09-09T05:59:44;17.90;1.00
20174;DHT22;10246;50.620;7.232;2022-09-09T06:02:11;17.90;1.00
20174;DHT22;10246;50.620;7.232;2022-09-09T06:04:38;17.90;1.00
20174;DHT22;10246;50.620;7.232;2022-09-09T06:07:05;17.90;1.00
20174;DHT22;10246;50.620;7.232;2022-09-09T06:09:32;17.80;1.00
20174;DHT22;10246;50.620;7.232;2022-09-09T06:12:00;17.90;1.00
20174;DHT22;10246;50.620;7.232;2022-09-09T06:14:27;17.90;1.00
20174;DHT22;10246;50.620;7.232;2022-09-09T06:16:54;17.90;1.00
20174;DHT22;10246;50.620;7.232;2022-09-09T06:19:22;17.90;1.00
20174;DHT22;10246;50.620;7.232;2022-09-09T06:21:49;17.90;1.00
20174;DHT22;10246;50.620;7.232;2022-09-09T06:24:16;17.90;1.00
20174;DHT22;10246;50.620;7.232;2022-09-09T06:26:44;18.00;1.00
20174;DHT22;10246;50.620;7.232;2022-09-09T06:29:13;17.90;1.00
20174;DHT22;10246;50.620;7.232;2022-09-09T06:31:39;18.00;1.00
20174;DHT22;10246;50.620;7.232;2022-09-09T06:34:07;18.00;1.00
20174;DHT22;10246;50.620;7.232;2022-09-09T06:36:36;18.00;1.00
20174;DHT22;10246;50.620;7.232;2022-09-09T06:39:03;18.00;1.00
20174;DHT22;10246;50.620;7.232;2022-09-09T06:41:32;18.00;1.00
20174;DHT22;10246;50.620;7.232;2022-09-09T06:43:59;18.00;1.00
20174;DHT22;10246;50.620;7.232;2022-09-09T06:46:29;18.00;1.00
20174;DHT22;10246;50.620;7.232;2022-09-09T06:48:58;18.10;1.00
20174;DHT22;10246;50.620;7.232;2022-09-09T06:51:26;18.20;1.00
20174;DHT22;10246;50.620;7.232;2022-09-09T06:53:55;18.30;1.00
20174;DHT22;10246;50.620;7.232;2022-09-09T06:56:24;18.30;1.00
20174;DHT22;10246;50.620;7.232;2022-09-09T06:58:52;18.50;1.00
20174;DHT22;10246;50.620;7.232;2022-09-09T07:01:21;18.60;1.00
20174;DHT22;10246;50.620;7.232;2022-09-09T07:03:51;18.60;1.00
20174;DHT22;10246;50.620;7.232;2022-09-09T07:06:20;18.70;1.00
20174;DHT22;10246;50.620;7.232;2022-09-09T07:08:50;18.70;1.00
20174;DHT22;10246;50.620;7.232;2022-09-09T07:11:19;18.70;1.00
20174;DHT22;10246;50.620;7.232;2022-09-09T07:13:46;18.80;1.00
20174;DHT22;10246;50.620;7.232;2022-09-09T07:16:14;18.90;1.00
20174;DHT22;10246;50.620;7.232;2022-09-09T07:18:42;19.00;1.00
20174;DHT22;10246;50.620;7.232;2022-09-09T07:21:11;19.10;1.00
20174;DHT22;10246;50.620;7.232;2022-09-09T07:23:38;19.10;1.00
20174;DHT22;10246;50.620;7.232;2022-09-09T07:26:08;19.30;1.00
20174;DHT22;10246;50.620;7.232;2022-09-09T07:28:36;19.40;1.00
20174;DHT22;10246;50.620;7.232;2022-09-09T07:31:04;19.40;1.00
20174;DHT22;10246;50.620;7.232;2022-09-09T07:33:32;19.60;1.00
20174;DHT22;10246;50.620;7.232;2022-09-09T07:36:04;19.70;1.00
20174;DHT22;10246;50.620;7.232;2022-09-09T07:38:32;19.80;1.00
20174;DHT22;10246;50.620;7.232;2022-09-09T07:41:04;19.80;1.00
20174;DHT22;10246;50.620;7.232;2022-09-09T07:43:31;19.90;1.00
20174;DHT22;10246;50.620;7.232;2022-09-09T07:45:59;19.90;1.00
20174;DHT22;10246;50.620;7.232;2022-09-09T07:48:27;20.10;1.00
20174;DHT22;10246;50.620;7.232;2022-09-09T07:51:04;20.20;1.00
20174;DHT22;10246;50.620;7.232;2022-09-09T07:53:33;20.10;1.00
20174;DHT22;10246;50.620;7.232;2022-09-09T07:56:06;20.10;1.00
20174;DHT22;10246;50.620;7.232;2022-09-09T07:58:35;20.00;1.00
20174;DHT22;10246;50.620;7.232;2022-09-09T08:01:07;20.10;1.00
20174;DHT22;10246;50.620;7.232;2022-09-09T08:03:34;20.10;1.00
20174;DHT22;10246;50.620;7.232;2022-09-09T08:06:01;20.10;1.00
20174;DHT22;10246;50.620;7.232;2022-09-09T08:08:29;20.10;1.00
20174;DHT22;10246;50.620;7.232;2022-09-09T08:11:05;20.10;1.00
20174;DHT22;10246;50.620;7.232;2022-09-09T08:13:33;20.00;1.00
20174;DHT22;10246;50.620;7.232;2022-09-09T08:16:05;20.00;1.00
20174;DHT22;10246;50.620;7.232;2022-09-09T08:18:32;20.10;1.00
20174;DHT22;10246;50.620;7.232;2022-09-09T08:21:05;20.20;1.00
20174;DHT22;10246;50.620;7.232;2022-09-09T08:23:34;20.20;1.00
20174;DHT22;10246;50.620;7.232;2022-09-09T08:26:06;20.20;1.00
20174;DHT22;10246;50.620;7.232;2022-09-09T08:28:34;20.30;1.00
20174;DHT22;10246;50.620;7.232;2022-09-09T08:31:09;20.30;1.00
20174;DHT22;10246;50.620;7.232;2022-09-09T08:33:37;20.30;1.00
20174;DHT22;10246;50.620;7.232;2022-09-09T08:36:04;20.20;1.00
20174;DHT22;10246;50.620;7.232;2022-09-09T08:38:32;20.20;1.00
20174;DHT22;10246;50.620;7.232;2022-09-09T08:41:10;20.10;1.00
20174;DHT22;10246;50.620;7.232;2022-09-09T08:43:43;20.10;1.00
20174;DHT22;10246;50.620;7.232;2022-09-09T08:46:15;20.30;1.00
20174;DHT22;10246;50.620;7.232;2022-09-09T08:48:52;20.40;1.00
20174;DHT22;10246;50.620;7.232;2022-09-09T08:51:24;20.50;1.00
20174;DHT22;10246;50.620;7.232;2022-09-09T08:53:52;20.40;1.00
20174;DHT22;10246;50.620;7.232;2022-09-09T08:56:24;20.30;1.00
20174;DHT22;10246;50.620;7.232;2022-09-09T08:58:54;20.40;1.00
20174;DHT22;10246;50.620;7.232;2022-09-09T09:01:38;20.50;1.00
20174;DHT22;10246;50.620;7.232;2022-09-09T09:04:21;20.60;1.00
20174;DHT22;10246;50.620;7.232;2022-09-09T09:06:54;20.70;1.00
20174;DHT22;10246;50.620;7.232;2022-09-09T09:09:30;20.80;1.00
20174;DHT22;10246;50.620;7.232;2022-09-09T09:12:12;20.90;1.00
20174;DHT22;10246;50.620;7.232;2022-09-09T09:14:43;21.00;1.00
20174;DHT22;10246;50.620;7.232;2022-09-09T09:17:13;20.90;1.00
20174;DHT22;10246;50.620;7.232;2022-09-09T09:19:41;20.90;1.00
20174;DHT22;10246;50.620;7.232;2022-09-09T09:22:16;20.90;1.00
20174;DHT22;10246;50.620;7.232;2022-09-09T09:24:49;20.90;1.00
20174;DHT22;10246;50.620;7.232;2022-09-09T09:27:24;20.90;1.00
20174;DHT22;10246;50.620;7.232;2022-09-09T09:29:55;20.90;1.00
20174;DHT22;10246;50.620;7.232;2022-09-09T09:32:24;20.90;1.00
20174;DHT22;10246;50.620;7.232;2022-09-09T09:34:55;20.90;1.00
20174;DHT22;10246;50.620;7.232;2022-09-09T09:37:27;21.00;1.00
20174;DHT22;10246;50.620;7.232;2022-09-09T09:39:54;21.00;1.00
20174;DHT22;10246;50.620;7.232;2022-09-09T09:42:22;21.00;1.00
20174;DHT22;10246;50.620;7.232;2022-09-09T09:44:49;21.00;1.00
20174;DHT22;10246;50.620;7.232;2022-09-09T09:47:20;21.00;1.00
20174;DHT22;10246;50.620;7.232;2022-09-09T09:49:53;21.00;1.00
20174;DHT22;10246;50.620;7.232;2022-09-09T09:52:23;20.90;1.00
20174;DHT22;10246;50.620;7.232;2022-09-09T09:54:50;20.90;1.00
20174;DHT22;10246;50.620;7.232;2022-09-09T09:57:18;20.90;1.00
20174;DHT22;10246;50.620;7.232;2022-09-09T10:00:00;20.90;1.00
20174;DHT22;10246;50.620;7.232;2022-09-09T10:02:37;20.90;1.00
20174;DHT22;10246;50.620;7.232;2022-09-09T10:05:08;20.90;1.00
20174;DHT22;10246;50.620;7.232;2022-09-09T10:07:38;21.00;1.00
20174;DHT22;10246;50.620;7.232;2022-09-09T10:10:08;21.10;1.00
20174;DHT22;10246;50.620;7.232;2022-09-09T10:12:43;21.10;1.00
20174;DHT22;10246;50.620;7.232;2022-09-09T10:15:28;21.10;1.00
20174;DHT22;10246;50.620;7.232;2022-09-09T10:18:04;21.10;1.00
20174;DHT22;10246;50.620;7.232;2022-09-09T10:20:38;21.10;1.00
20174;DHT22;10246;50.620;7.232;2022-09-09T10:23:19;21.20;1.00
20174;DHT22;10246;50.620;7.232;2022-09-09T10:26:02;21.30;1.00
20174;DHT22;10246;50.620;7.232;2022-09-09T10:28:49;21.40;1.00
20174;DHT22;10246;50.620;7.232;2022-09-09T10:31:24;21.30;1.00
20174;DHT22;10246;50.620;7.232;2022-09-09T10:33:59;21.30;1.00
20174;DHT22;10246;50.620;7.232;2022-09-09T10:36:28;21.30;1.00
20174;DHT22;10246;50.620;7.232;2022-09-09T10:38:59;21.40;1.00
20174;DHT22;10246;50.620;7.232;2022-09-09T10:41:43;21.50;1.00
20174;DHT22;10246;50.620;7.232;2022-09-09T10:47:35;22.00;1.00
20174;DHT22;10246;50.620;7.232;2022-09-09T10:50:16;22.10;1.00
20174;DHT22;10246;50.620;7.232;2022-09-09T10:52:49;22.30;1.00
20174;DHT22;10246;50.620;7.232;2022-09-09T10:55:24;22.40;1.00
20174;DHT22;10246;50.620;7.232;2022-09-09T10:57:54;22.40;1.00
20174;DHT22;10246;50.620;7.232;2022-09-09T11:00:24;22.30;1.00
20174;DHT22;10246;50.620;7.232;2022-09-09T11:02:56;22.30;1.00
20174;DHT22;10246;50.620;7.232;2022-09-09T11:05:28;22.00;1.00
20174;DHT22;10246;50.620;7.232;2022-09-09T11:07:58;22.00;1.00
20174;DHT22;10246;50.620;7.232;2022-09-09T11:10:30;22.00;1.00
20174;DHT22;10246;50.620;7.232;2022-09-09T11:13:04;22.10;1.00
20174;DHT22;10246;50.620;7.232;2022-09-09T11:15:39;22.20;1.00
20174;DHT22;10246;50.620;7.232;2022-09-09T11:18:13;22.30;1.00
20174;DHT22;10246;50.620;7.232;2022-09-09T11:20:42;22.40;1.00
20174;DHT22;10246;50.620;7.232;2022-09-09T11:23:13;22.60;1.00
20174;DHT22;10246;50.620;7.232;2022-09-09T11:25:45;22.60;1.00
20174;DHT22;10246;50.620;7.232;2022-09-09T11:28:28;22.50;1.00
20174;DHT22;10246;50.620;7.232;2022-09-09T11:31:09;22.60;1.00
20174;DHT22;10246;50.620;7.232;2022-09-09T11:33:51;22.50;1.00
20174;DHT22;10246;50.620;7.232;2022-09-09T11:39:57;22.30;1.00
20174;DHT22;10246;50.620;7.232;2022-09-09T11:42:27;22.40;1.00
20174;DHT22;10246;50.620;7.232;2022-09-09T11:44:53;22.20;1.00
20174;DHT22;10246;50.620;7.232;2022-09-09T11:47:24;22.10;1.00
20174;DHT22;10246;50.620;7.232;2022-09-09T11:50:22;22.30;1.00
20174;DHT22;10246;50.620;7.232;2022-09-09T11:53:18;22.50;1.00
20174;DHT22;10246;50.620;7.232;2022-09-09T11:55:48;22.50;1.00
20174;DHT22;10246;50.620;7.232;2022-09-09T11:58:17;22.80;1.00
20174;DHT22;10246;50.620;7.232;2022-09-09T12:00:47;23.10;1.00
20174;DHT22;10246;50.620;7.232;2022-09-09T12:03:34;23.40;1.00
20174;DHT22;10246;50.620;7.232;2022-09-09T12:06:12;23.50;1.00
20174;DHT22;10246;50.620;7.232;2022-09-09T12:08:43;23.20;1.00
20174;DHT22;10246;50.620;7.232;2022-09-09T12:11:11;23.00;1.00
20174;DHT22;10246;50.620;7.232;2022-09-09T12:13:37;23.00;1.00
20174;DHT22;10246;50.620;7.232;2022-09-09T12:16:04;23.00;1.00
20174;DHT22;10246;50.620;7.232;2022-09-09T12:18:34;22.80;1.00
20174;DHT22;10246;50.620;7.232;2022-09-09T12:21:06;22.70;1.00
20174;DHT22;10246;50.620;7.232;2022-09-09T12:23:41;22.50;1.00
20174;DHT22;10246;50.620;7.232;2022-09-09T12:26:29;22.40;1.00
20174;DHT22;10246;50.620;7.232;2022-09-09T12:29:19;22.50;1.00
20174;DHT22;10246;50.620;7.232;2022-09-09T12:31:53;22.70;1.00
20174;DHT22;10246;50.620;7.232;2022-09-09T12:34:34;22.80;1.00
20174;DHT22;10246;50.620;7.232;2022-09-09T12:37:05;22.70;1.00
20174;DHT22;10246;50.620;7.232;2022-09-09T12:39:39;22.70;1.00
20174;DHT22;10246;50.620;7.232;2022-09-09T12:42:17;22.70;1.00
20174;DHT22;10246;50.620;7.232;2022-09-09T12:44:54;22.40;1.00
20174;DHT22;10246;50.620;7.232;2022-09-09T12:47:25;22.30;1.00
20174;DHT22;10246;50.620;7.232;2022-09-09T12:49:53;22.30;1.00
20174;DHT22;10246;50.620;7.232;2022-09-09T12:52:27;22.30;1.00
20174;DHT22;10246;50.620;7.232;2022-09-09T12:54:57;22.30;1.00
20174;DHT22;10246;50.620;7.232;2022-09-09T12:57:33;22.30;1.00
20174;DHT22;10246;50.620;7.232;2022-09-09T13:00:07;22.30;1.00
20174;DHT22;10246;50.620;7.232;2022-09-09T13:02:45;22.40;1.00
20174;DHT22;10246;50.620;7.232;2022-09-09T13:05:15;22.30;1.00
20174;DHT22;10246;50.620;7.232;2022-09-09T13:07:43;22.20;1.00
20174;DHT22;10246;50.620;7.232;2022-09-09T13:10:13;22.20;1.00
20174;DHT22;10246;50.620;7.232;2022-09-09T13:12:40;22.20;1.00
20174;DHT22;10246;50.620;7.232;2022-09-09T13:15:16;22.20;1.00
20174;DHT22;10246;50.620;7.232;2022-09-09T13:17:49;22.10;1.00
20174;DHT22;10246;50.620;7.232;2022-09-09T13:20:17;22.20;1.00
20174;DHT22;10246;50.620;7.232;2022-09-09T13:22:45;22.20;1.00
20174;DHT22;10246;50.620;7.232;2022-09-09T13:25:21;22.20;1.00
20174;DHT22;10246;50.620;7.232;2022-09-09T13:28:02;22.20;1.00
20174;DHT22;10246;50.620;7.232;2022-09-09T13:30:31;22.10;1.00
20174;DHT22;10246;50.620;7.232;2022-09-09T13:33:18;22.00;1.00
20174;DHT22;10246;50.620;7.232;2022-09-09T13:35:49;22.00;1.00
20174;DHT22;10246;50.620;7.232;2022-09-09T13:38:17;21.90;1.00
20174;DHT22;10246;50.620;7.232;2022-09-09T13:40:54;21.80;1.00
20174;DHT22;10246;50.620;7.232;2022-09-09T13:43:24;21.70;1.00
20174;DHT22;10246;50.620;7.232;2022-09-09T13:45:55;21.50;1.00
20174;DHT22;10246;50.620;7.232;2022-09-09T13:48:23;21.60;1.00
20174;DHT22;10246;50.620;7.232;2022-09-09T13:50:56;21.70;1.00
20174;DHT22;10246;50.620;7.232;2022-09-09T13:53:23;21.70;1.00
20174;DHT22;10246;50.620;7.232;2022-09-09T13:55:50;21.70;1.00
20174;DHT22;10246;50.620;7.232;2022-09-09T13:58:19;21.70;1.00
20174;DHT22;10246;50.620;7.232;2022-09-09T14:00:47;21.70;1.00
20174;DHT22;10246;50.620;7.232;2022-09-09T14:03:13;21.70;1.00
20174;DHT22;10246;50.620;7.232;2022-09-09T14:05:40;21.60;1.00
20174;DHT22;10246;50.620;7.232;2022-09-09T14:08:14;21.50;1.00
20174;DHT22;10246;50.620;7.232;2022-09-09T14:10:41;21.50;1.00
20174;DHT22;10246;50.620;7.232;2022-09-09T14:13:08;21.50;1.00
20174;DHT22;10246;50.620;7.232;2022-09-09T14:15:36;21.50;1.00
20174;DHT22;10246;50.620;7.232;2022-09-09T14:18:03;21.50;1.00
20174;DHT22;10246;50.620;7.232;2022-09-09T14:20:30;21.40;1.00
20174;DHT22;10246;50.620;7.232;2022-09-09T14:22:57;21.30;1.00
20174;DHT22;10246;50.620;7.232;2022-09-09T14:25:24;21.30;1.00
20174;DHT22;10246;50.620;7.232;2022-09-09T14:27:51;21.20;1.00
20174;DHT22;10246;50.620;7.232;2022-09-09T14:30:17;21.20;1.00
20174;DHT22;10246;50.620;7.232;2022-09-09T14:32:46;21.30;1.00
20174;DHT22;10246;50.620;7.232;2022-09-09T14:35:12;21.30;1.00
20174;DHT22;10246;50.620;7.232;2022-09-09T14:37:39;21.20;1.00
20174;DHT22;10246;50.620;7.232;2022-09-09T14:40:06;21.20;1.00
20174;DHT22;10246;50.620;7.232;2022-09-09T14:42:33;21.10;1.00
20174;DHT22;10246;50.620;7.232;2022-09-09T14:45:00;21.00;1.00
20174;DHT22;10246;50.620;7.232;2022-09-09T14:47:27;20.90;1.00
20174;DHT22;10246;50.620;7.232;2022-09-09T14:49:57;20.90;1.00
20174;DHT22;10246;50.620;7.232;2022-09-09T14:52:23;20.90;1.00
20174;DHT22;10246;50.620;7.232;2022-09-09T14:54:53;20.80;1.00
20174;DHT22;10246;50.620;7.232;2022-09-09T14:57:19;20.90;1.00
20174;DHT22;10246;50.620;7.232;2022-09-09T14:59:46;20.80;1.00
20174;DHT22;10246;50.620;7.232;2022-09-09T15:02:16;20.60;1.00
20174;DHT22;10246;50.620;7.232;2022-09-09T15:04:42;20.50;1.00
20174;DHT22;10246;50.620;7.232;2022-09-09T15:07:11;20.40;1.00
20174;DHT22;10246;50.620;7.232;2022-09-09T15:09:37;20.30;1.00
20174;DHT22;10246;50.620;7.232;2022-09-09T15:12:04;20.30;1.00
20174;DHT22;10246;50.620;7.232;2022-09-09T15:14:31;20.30;1.00
20174;DHT22;10246;50.620;7.232;2022-09-09T15:16:58;20.30;1.00
20174;DHT22;10246;50.620;7.232;2022-09-09T15:19:25;20.30;1.00
20174;DHT22;10246;50.620;7.232;2022-09-09T15:21:51;20.30;1.00
20174;DHT22;10246;50.620;7.232;2022-09-09T15:24:21;20.20;1.00
20174;DHT22;10246;50.620;7.232;2022-09-09T15:26:47;20.10;1.00
20174;DHT22;10246;50.620;7.232;2022-09-09T15:29:14;20.10;1.00
20174;DHT22;10246;50.620;7.232;2022-09-09T15:31:41;20.20;1.00
20174;DHT22;10246;50.620;7.232;2022-09-09T15:34:08;20.20;1.00
20174;DHT22;10246;50.620;7.232;2022-09-09T15:36:36;20.30;1.00
20174;DHT22;10246;50.620;7.232;2022-09-09T15:39:05;20.30;1.00
20174;DHT22;10246;50.620;7.232;2022-09-09T15:41:33;20.30;1.00
20174;DHT22;10246;50.620;7.232;2022-09-09T15:44:01;20.30;1.00
20174;DHT22;10246;50.620;7.232;2022-09-09T15:46:30;20.30;1.00
20174;DHT22;10246;50.620;7.232;2022-09-09T15:48:58;20.20;1.00
20174;DHT22;10246;50.620;7.232;2022-09-09T15:51:29;20.20;1.00
20174;DHT22;10246;50.620;7.232;2022-09-09T15:53:56;20.20;1.00
20174;DHT22;10246;50.620;7.232;2022-09-09T15:56:23;20.10;1.00
20174;DHT22;10246;50.620;7.232;2022-09-09T15:58:52;20.10;1.00
20174;DHT22;10246;50.620;7.232;2022-09-09T16:01:19;19.90;1.00
20174;DHT22;10246;50.620;7.232;2022-09-09T16:03:46;19.90;1.00
20174;DHT22;10246;50.620;7.232;2022-09-09T16:06:15;19.80;1.00
20174;DHT22;10246;50.620;7.232;2022-09-09T16:08:44;19.80;1.00
20174;DHT22;10246;50.620;7.232;2022-09-09T16:11:13;19.80;1.00
20174;DHT22;10246;50.620;7.232;2022-09-09T16:13:41;19.80;1.00